Marysville, OH (43040)

2:34 PM EDT on September 03, 2015 (GMT -0400)
Mill Valley | | Change Station
CLOSE
Current Station
Personal Weather Station
Location: Marysville, OH
Elevation: 994 ft
Nearby Weather Stations

Elev 994 ft 40.26 °N, 83.39 °W | Updated 3 minutes ago

Scattered Clouds
Scattered Clouds
89.1 °F
Feels Like 98 °F
N
4.2
Wind Variable Wind from WNW

Today
High -- | Low -- °F
--% Chance of Precip.
Yesterday
High -- | Low -- °F
Precip. -- in
7:02 AM 8:02 PM
Waning Gibbous, 68% visible
Pressure 29.99 in
Visibility 10.0 miles
Clouds Scattered Clouds 4700 ft
Scattered Clouds 7000 ft
Heat Index 98 °F
Dew Point 74 °F
Humidity 61%
Rainfall 0.00 in
Snow Depth Not available.
UV 7 out of 12
Pollen 10.40 out of 12
Air Quality Not available.
Flu Activity Not available.
METAR KMRT 031814Z AUTO 29007KT 10SM SCT047 SCT070 31/20 A2999 RMK AO2 T03070198
Pressure 29.99 in
Visibility 10.0 miles
Clouds Scattered Clouds 4700 ft
Scattered Clouds 7000 ft
Heat Index 98 °F
Dew Point 74 °F
Humidity 61%
Rainfall 0.00 in
Snow Depth Not available.
UV 7 out of 12
Pollen 10.40 out of 12
Air Quality Not available.
Flu Activity Not available.
METAR KMRT 031814Z AUTO 29007KT 10SM SCT047 SCT070 31/20 A2999 RMK AO2 T03070198

10-Day Weather Forecast

×

Almanac

Astronomy

Sep. 03, 2015 Rise Set
Actual Time
Civil Twilight
Nautical Twilight
Astronomical Twilight
Moon
Length of Visible Light
Length of Day
Tomorrow will be .
, % of the Moon is Illuminated

Today's Extremes

State Highs State Lows

Community

WunderPhotos

Upload Photos

1,851,999 photos uploaded!

WunderBlogs® & News

Nearby

Air Quality

  Air Quality AQ Index Pollutant
Not available.

Snow Depth

Station Depth Elevation

Earthquake Activity

City Distance Mag. Time & Date
Minimum magnitude displayed is 2.5.

Coastal Water Temperatures

Place Temperature

Stations

Nearby Weather Stations

Station Location Temp. Windchill Dew Point Humidity Wind Precip. Elev Updated Type